Time;durP1;ratioP1;P1;durP2;ratioP2;P2;SDS_P1;SDS_P2;PMS_P1;PMS_P2;Temp;Humidity;BMP_temperature;BMP_pressure;BME280_temperature;BME280_humidity;BME280_pressure;Samples;Min_cycle;Max_cycle;Signal;HPM_P1;HPM_P2
2024/01/13 00:00:30;;;;;;;;;;;;;;;2.13;55.36;100141.69;5001261;28;19934;-83
2024/01/13 00:18:59;;;;;;;;;;;;;;;2.17;55.41;100132.72;5125866;23;19910;-82
2024/01/13 00:21:27;;;;;;;;;;;;;;;2.19;55.38;100129.06;5004191;28;19932;-83
2024/01/13 00:24:14;;;;;;;;;;;;;;;2.24;55.57;100133.97;5003803;28;19929;-83
2024/01/13 00:26:45;;;;;;;;;;;;;;;2.24;55.71;100133.97;5676802;22;19958;-83
2024/01/13 00:29:16;;;;;;;;;;;;;;;2.21;55.34;100131.56;4983796;28;19929;-83
2024/01/13 00:31:54;;;;;;;;;;;;;;;2.21;55.42;100136.78;5000644;28;19970;-82
2024/01/13 00:37:12;;;;;;;;;;;;;;;2.17;55.29;100130.13;5716564;23;19928;-83
2024/01/13 00:39:38;;;;;;;;;;;;;;;2.22;55.57;100138.44;5286483;23;20057;-85
2024/01/13 00:58:00;;;;;;;;;;;;;;;2.11;56.41;100141.81;5420015;23;19933;-83
2024/01/13 01:21:39;;;;;;;;;;;;;;;2.06;56.56;100125.69;5594886;22;19917;-84
2024/01/13 01:29:24;;;;;;;;;;;;;;;2.09;56.37;100112.44;4705310;26;19929;-82
2024/01/13 01:49:32;;;;;;;;;;;;;;;1.88;57.88;100111.38;5936393;23;19985;-84
2024/01/13 01:55:11;;;;;;;;;;;;;;;1.81;58.22;100118.78;5611414;23;19934;-83
2024/01/13 01:57:58;;;;;;;;;;;;;;;1.83;58.06;100103.88;4984329;28;19973;-84
2024/01/13 02:04:03;;;;;;;;;;;;;;;1.84;57.84;100100.34;4979388;28;19930;-83
2024/01/13 02:09:36;;;;;;;;;;;;;;;1.78;58.63;100105.97;5315881;22;19933;-83
2024/01/13 02:12:17;;;;;;;;;;;;;;;1.81;58.37;100097.94;4979297;28;19919;-84
2024/01/13 02:17:48;;;;;;;;;;;;;;;1.85;58.27;100101.16;4980333;28;19914;-83
2024/01/13 02:25:44;;;;;;;;;;;;;;;1.87;57.40;100094.09;5631371;23;19926;-82
2024/01/13 02:31:27;;;;;;;;;;;;;;;1.80;57.87;100091.09;4999127;28;19924;-83
2024/01/13 02:36:46;;;;;;;;;;;;;;;1.84;57.22;100091.69;5309290;23;19941;-82
2024/01/13 03:26:39;;;;;;;;;;;;;;;1.93;57.05;100096.25;5914861;23;19914;-82
2024/01/13 03:51:41;;;;;;;;;;;;;;;1.84;57.15;100105.56;5793369;23;19930;-83
2024/01/13 03:54:09;;;;;;;;;;;;;;;1.82;56.79;100096.19;4982062;28;19922;-82
2024/01/13 03:56:34;;;;;;;;;;;;;;;1.82;56.65;100099.63;4974792;28;19930;-83
2024/01/13 04:02:05;;;;;;;;;;;;;;;1.67;56.34;100105.06;4963226;28;19930;-83
2024/01/13 04:04:47;;;;;;;;;;;;;;;1.69;55.54;100098.81;4962524;28;19958;-83
2024/01/13 04:07:13;;;;;;;;;;;;;;;1.73;55.89;100107.25;4962780;28;19907;-83
2024/01/13 04:09:53;;;;;;;;;;;;;;;1.66;54.64;100108.63;4960665;28;19931;-82
2024/01/13 04:14:55;;;;;;;;;;;;;;;1.64;55.16;100106.13;5703994;23;19910;-81
2024/01/13 04:17:23;;;;;;;;;;;;;;;1.57;55.21;100097.91;4984723;28;19906;-83
2024/01/13 04:19:56;;;;;;;;;;;;;;;1.55;54.84;100098.97;4983638;28;19982;-82
2024/01/13 04:22:22;;;;;;;;;;;;;;;1.61;55.33;100095.09;5000300;28;19925;-82
2024/01/13 04:24:53;;;;;;;;;;;;;;;1.57;54.99;100100.50;4984537;28;19946;-83
2024/01/13 04:30:08;;;;;;;;;;;;;;;1.65;54.36;100096.53;5018013;28;19916;-83
2024/01/13 04:32:57;;;;;;;;;;;;;;;1.57;53.76;100099.69;4970081;28;19929;-83
2024/01/13 04:35:24;;;;;;;;;;;;;;;1.50;53.88;100088.03;4960017;28;19923;-83
2024/01/13 04:40:25;;;;;;;;;;;;;;;1.41;53.67;100099.06;5536742;23;19910;-82
2024/01/13 04:43:00;;;;;;;;;;;;;;;1.44;53.64;100093.63;4976268;28;19911;-82
2024/01/13 04:48:03;;;;;;;;;;;;;;;1.44;53.91;100093.63;5410282;23;19910;-82
2024/01/13 04:50:40;;;;;;;;;;;;;;;1.34;53.61;100100.41;5235042;23;19930;-83
2024/01/13 04:53:20;;;;;;;;;;;;;;;1.36;53.83;100101.97;4963872;28;19954;-83
2024/01/13 04:55:49;;;;;;;;;;;;;;;1.41;53.67;100101.66;4980701;28;19929;-83
2024/01/13 04:58:17;;;;;;;;;;;;;;;1.40;52.82;100102.59;5354616;23;19910;-83
2024/01/13 05:00:54;;;;;;;;;;;;;;;1.37;53.16;100106.25;4983773;28;19910;-83
2024/01/13 05:25:26;;;;;;;;;;;;;;;1.27;52.76;100100.84;4831412;23;19910;-83
2024/01/13 05:27:52;;;;;;;;;;;;;;;1.27;52.78;100106.03;5000028;28;19918;-83
2024/01/13 05:30:18;;;;;;;;;;;;;;;1.32;53.13;100094.50;5000061;28;19913;-83
2024/01/13 05:32:44;;;;;;;;;;;;;;;1.34;53.38;100098.66;5000130;28;19926;-83
2024/01/13 05:45:32;;;;;;;;;;;;;;;1.20;51.93;100102.19;4983407;23;19927;-82
2024/01/13 05:47:58;;;;;;;;;;;;;;;1.15;52.68;100101.69;4961353;28;19927;-82
2024/01/13 05:50:24;;;;;;;;;;;;;;;1.17;52.67;100093.78;4962505;28;19982;-82
2024/01/13 05:52:57;;;;;;;;;;;;;;;1.13;52.56;100095.75;4958722;29;19965;-81
2024/01/13 05:55:24;;;;;;;;;;;;;;;1.11;51.96;100099.41;4962641;28;19946;-81
2024/01/13 05:57:56;;;;;;;;;;;;;;;1.13;52.29;100090.56;4952409;29;19918;-81
2024/01/13 06:00:28;;;;;;;;;;;;;;;1.17;52.83;100091.16;4978638;28;19902;-82
2024/01/13 06:03:01;;;;;;;;;;;;;;;1.00;51.67;100079.31;4979141;28;19906;-82
2024/01/13 06:05:26;;;;;;;;;;;;;;;1.09;52.26;100083.06;4963453;29;19922;-82
2024/01/13 06:08:09;;;;;;;;;;;;;;;1.03;51.80;100078.28;4979913;28;19918;-83
2024/01/13 06:10:36;;;;;;;;;;;;;;;1.09;52.83;100088.25;4979912;28;19906;-83
2024/01/13 06:13:13;;;;;;;;;;;;;;;1.01;51.88;100075.78;4979748;28;19922;-83
2024/01/13 06:15:45;;;;;;;;;;;;;;;0.95;52.02;100082.22;4963136;28;19907;-83
2024/01/13 06:18:10;;;;;;;;;;;;;;;0.98;52.21;100081.19;4963650;29;19930;-83
2024/01/13 06:20:36;;;;;;;;;;;;;;;1.10;52.54;100082.97;4978559;28;19906;-82
2024/01/13 06:23:05;;;;;;;;;;;;;;;1.04;52.16;100074.75;4983205;28;19946;-82
2024/01/13 06:25:32;;;;;;;;;;;;;;;1.03;51.52;100083.47;4951492;29;19922;-82
2024/01/13 06:27:57;;;;;;;;;;;;;;;1.04;51.89;100085.16;4983981;28;19906;-83
2024/01/13 06:30:23;;;;;;;;;;;;;;;1.07;52.52;100085.78;4966716;28;19923;-83
2024/01/13 06:32:58;;;;;;;;;;;;;;;1.13;52.23;100089.72;4983630;28;19922;-83
2024/01/13 06:35:31;;;;;;;;;;;;;;;1.14;52.15;100094.81;4967063;28;19925;-83
2024/01/13 06:38:03;;;;;;;;;;;;;;;1.01;51.97;100094.00;4982538;28;19906;-82
2024/01/13 06:40:30;;;;;;;;;;;;;;;1.09;51.31;100096.91;4967080;28;19927;-82
2024/01/13 06:42:59;;;;;;;;;;;;;;;0.95;51.10;100092.63;4982428;28;19907;-83
2024/01/13 06:45:24;;;;;;;;;;;;;;;1.10;50.94;100090.75;4950708;29;19933;-83
2024/01/13 06:47:57;;;;;;;;;;;;;;;1.12;51.13;100088.06;4950201;28;19934;-83
2024/01/13 06:50:25;;;;;;;;;;;;;;;1.17;51.64;100076.41;4935820;29;19941;-83
2024/01/13 06:52:58;;;;;;;;;;;;;;;1.14;50.73;100083.59;4983502;28;19906;-82
2024/01/13 06:55:24;;;;;;;;;;;;;;;1.19;50.74;100089.28;5779418;23;19922;-82
2024/01/13 06:57:50;;;;;;;;;;;;;;;1.19;50.75;100099.69;5005052;28;19945;-81
2024/01/13 07:00:16;;;;;;;;;;;;;;;1.20;50.99;100101.38;5021888;28;19933;-82
2024/01/13 07:02:41;;;;;;;;;;;;;;;1.21;51.22;100106.47;5805107;22;21020;-80
2024/01/13 07:07:42;;;;;;;;;;;;;;;1.31;51.41;100111.03;5747302;22;19910;-82
2024/01/13 07:12:42;;;;;;;;;;;;;;;1.48;50.13;100102.91;6006304;22;21521;-81
2024/01/13 07:15:08;;;;;;;;;;;;;;;1.42;49.46;100109.34;5001373;28;19966;-81
2024/01/13 07:20:09;;;;;;;;;;;;;;;1.55;49.43;100107.59;5035677;22;19917;-83
2024/01/13 07:22:34;;;;;;;;;;;;;;;1.64;50.57;100116.53;5001905;28;19906;-81
2024/01/13 07:25:04;;;;;;;;;;;;;;;1.61;50.33;100108.94;5001837;28;19922;-83
2024/01/13 07:27:30;;;;;;;;;;;;;;;1.69;49.83;100117.03;4968731;28;19929;-82
2024/01/13 07:30:08;;;;;;;;;;;;;;;1.71;49.82;100130.78;5001807;28;19907;-83
2024/01/13 07:32:35;;;;;;;;;;;;;;;1.66;50.16;100116.44;4983638;28;19914;-82
2024/01/13 07:35:09;;;;;;;;;;;;;;;1.74;49.20;100119.31;4968283;28;19974;-83
2024/01/13 07:37:35;;;;;;;;;;;;;;;1.68;49.30;100117.16;5001874;28;19930;-82
2024/01/13 07:40:31;;;;;;;;;;;;;;;1.80;49.90;100127.53;5002031;28;19913;-82
2024/01/13 07:42:57;;;;;;;;;;;;;;;1.92;49.83;100118.03;4956307;28;19911;-82
2024/01/13 07:45:37;;;;;;;;;;;;;;;1.89;49.70;100126.88;4946390;28;19907;-83
2024/01/13 07:50:39;;;;;;;;;;;;;;;1.87;49.86;100113.13;4806325;26;19910;-83
2024/01/13 08:07:28;;;;;;;;;;;;;;;1.80;47.67;100116.28;4986302;28;19913;-82
2024/01/13 08:35:55;;;;;;;;;;;;;;;1.67;47.68;100118.09;5000885;28;19944;-82
2024/01/13 08:41:07;;;;;;;;;;;;;;;1.56;46.48;100111.88;5632487;22;19926;-81
2024/01/13 08:43:48;;;;;;;;;;;;;;;1.64;47.61;100119.13;4984213;28;19917;-82
2024/01/13 08:56:58;;;;;;;;;;;;;;;2.01;47.42;100104.34;5427639;23;19954;-82
2024/01/13 08:59:49;;;;;;;;;;;;;;;2.02;46.46;100105.19;5000410;28;19910;-83
2024/01/13 09:10:15;;;;;;;;;;;;;;;2.15;46.87;100095.53;5395821;22;19957;-83
2024/01/13 09:13:16;;;;;;;;;;;;;;;2.17;47.02;100072.81;4960908;28;19918;-83
2024/01/13 09:26:31;;;;;;;;;;;;;;;2.15;46.82;100054.69;5916582;23;19906;-85
2024/01/13 10:22:27;;;;;;;;;;;;;;;2.91;46.10;99958.66;5136107;23;19926;-82
2024/01/13 10:28:27;;;;;;;;;;;;;;;3.06;45.17;99960.94;4993783;28;19929;-82
2024/01/13 10:34:44;;;;;;;;;;;;;;;2.99;46.46;99951.09;4995040;28;19921;-82
2024/01/13 10:50:03;;;;;;;;;;;;;;;3.31;46.02;99948.56;4770718;23;19918;-84
2024/01/13 11:01:44;;;;;;;;;;;;;;;3.42;45.40;99925.88;5156578;23;19916;-82
2024/01/13 11:15:59;;;;;;;;;;;;;;;3.33;44.66;99910.13;5087352;22;19925;-83
2024/01/13 11:21:48;;;;;;;;;;;;;;;3.41;44.85;99902.50;5048296;23;19917;-84
2024/01/13 11:24:53;;;;;;;;;;;;;;;3.46;44.10;99895.13;5002816;28;19910;-83
2024/01/13 11:27:27;;;;;;;;;;;;;;;3.41;43.71;99892.91;5001533;28;19910;-84
2024/01/13 11:30:01;;;;;;;;;;;;;;;3.36;43.39;99896.84;5073311;23;19937;-85
2024/01/13 11:32:39;;;;;;;;;;;;;;;3.36;43.08;99892.44;5022196;28;19913;-83
2024/01/13 11:43:54;;;;;;;;;;;;;;;3.34;43.29;99883.91;5105996;23;19933;-83
2024/01/13 11:49:24;;;;;;;;;;;;;;;3.34;42.79;99877.88;5156338;22;19933;-82
2024/01/13 12:06:44;;;;;;;;;;;;;;;3.40;44.32;99877.38;5348375;22;19917;-81
2024/01/13 12:09:29;;;;;;;;;;;;;;;3.35;43.42;99866.47;4983827;28;19924;-81
2024/01/13 12:12:10;;;;;;;;;;;;;;;3.37;43.50;99873.22;5001392;28;19906;-81
2024/01/13 12:15:10;;;;;;;;;;;;;;;3.38;43.79;99869.66;5039496;23;19929;-82
2024/01/13 12:26:31;;;;;;;;;;;;;;;3.57;44.71;99848.09;5000411;28;19943;-81
2024/01/13 12:32:42;;;;;;;;;;;;;;;3.47;42.94;99834.97;5942396;22;19910;-86
2024/01/13 12:41:38;;;;;;;;;;;;;;;3.44;42.80;99834.41;5043332;23;19933;-84
2024/01/13 13:16:23;;;;;;;;;;;;;;;3.49;43.71;99832.25;5289046;23;19910;-82
2024/01/13 13:18:52;;;;;;;;;;;;;;;3.51;43.38;99828.56;4983619;28;19973;-83
2024/01/13 13:45:01;;;;;;;;;;;;;;;3.60;44.41;99818.31;4240842;26;19940;-83
2024/01/13 13:48:05;;;;;;;;;;;;;;;3.61;44.37;99828.63;5047492;22;19909;-85
2024/01/13 13:51:08;;;;;;;;;;;;;;;3.58;43.59;99828.88;5018681;28;19910;-84
2024/01/13 13:53:48;;;;;;;;;;;;;;;3.61;44.01;99825.19;5079671;23;19910;-85
2024/01/13 13:59:32;;;;;;;;;;;;;;;3.60;42.94;99829.56;5234656;23;19917;-83
2024/01/13 14:11:08;;;;;;;;;;;;;;;3.62;42.54;99825.06;5299527;22;19965;-84
2024/01/13 14:13:58;;;;;;;;;;;;;;;3.64;43.72;99828.38;5019512;28;19910;-84
2024/01/13 14:16:48;;;;;;;;;;;;;;;3.67;43.76;99822.06;5019586;28;19928;-85
2024/01/13 14:25:25;;;;;;;;;;;;;;;3.56;43.25;99817.72;5267610;23;19933;-84
2024/01/13 14:31:27;;;;;;;;;;;;;;;3.49;44.96;99817.41;5608530;23;19910;-83
2024/01/13 14:34:11;;;;;;;;;;;;;;;3.45;44.75;99818.63;4982444;28;19913;-83
2024/01/13 14:36:52;;;;;;;;;;;;;;;3.44;44.12;99819.56;4988863;28;19922;-82
2024/01/13 14:39:53;;;;;;;;;;;;;;;3.48;44.25;99826.19;4975894;28;19898;-84
2024/01/13 14:50:53;;;;;;;;;;;;;;;3.39;43.57;99828.72;4963609;26;19910;-83
2024/01/13 15:01:46;;;;;;;;;;;;;;;3.32;44.73;99814.53;5040146;23;19910;-83
2024/01/13 15:35:32;;;;;;;;;;;;;;;3.01;46.53;99827.44;5612699;22;19920;-84
2024/01/13 15:38:31;;;;;;;;;;;;;;;2.98;46.48;99825.09;5485986;23;19930;-84
2024/01/13 15:56:12;;;;;;;;;;;;;;;2.81;47.34;99836.00;4876818;23;19930;-83
2024/01/13 16:21:18;;;;;;;;;;;;;;;2.57;48.37;99851.78;5164895;22;19917;-84
2024/01/13 16:37:13;;;;;;;;;;;;;;;2.43;49.52;99833.78;4996647;22;19922;-83
2024/01/13 16:39:44;;;;;;;;;;;;;;;2.41;49.42;99840.91;5526745;23;19985;-82
2024/01/13 16:42:43;;;;;;;;;;;;;;;2.39;49.30;99838.41;5254742;23;19945;-83
2024/01/13 16:48:20;;;;;;;;;;;;;;;2.31;50.12;99850.38;5631329;23;19926;-83
2024/01/13 16:54:04;;;;;;;;;;;;;;;2.17;50.56;99825.34;5245527;23;19934;-83
2024/01/13 17:00:08;;;;;;;;;;;;;;;2.10;50.51;99821.56;5020441;28;19960;-84
2024/01/13 17:05:39;;;;;;;;;;;;;;;2.10;50.81;99816.34;5297435;23;19910;-82
2024/01/13 17:36:46;;;;;;;;;;;;;;;1.78;52.61;99853.47;5305382;23;19933;-82
2024/01/13 17:55:26;;;;;;;;;;;;;;;1.58;52.27;99861.94;5040025;23;19910;-83
2024/01/13 17:57:55;;;;;;;;;;;;;;;1.55;52.35;99867.34;4999955;28;19910;-82
2024/01/13 18:00:21;;;;;;;;;;;;;;;1.50;53.00;99867.69;4999108;28;19962;-83
2024/01/13 18:02:50;;;;;;;;;;;;;;;1.46;52.90;99866.22;4998716;28;19963;-83
2024/01/13 18:05:37;;;;;;;;;;;;;;;1.43;53.29;99874.25;4999328;28;19957;-83
2024/01/13 18:08:16;;;;;;;;;;;;;;;1.39;53.22;99872.00;4998875;28;19906;-82
2024/01/13 18:14:20;;;;;;;;;;;;;;;1.34;53.64;99894.91;5492377;23;19952;-83
2024/01/13 18:17:06;;;;;;;;;;;;;;;1.32;53.20;99891.59;4974895;28;19926;-83
2024/01/13 18:27:58;;;;;;;;;;;;;;;1.30;53.67;99889.09;5284906;23;19910;-83
2024/01/13 19:12:53;;;;;;;;;;;;;;;1.43;53.82;99855.22;5641549;23;19910;-84
2024/01/13 19:15:19;;;;;;;;;;;;;;;1.43;53.66;99860.41;5015786;28;19988;-81
2024/01/13 19:18:02;;;;;;;;;;;;;;;1.41;53.23;99857.94;5021267;28;19933;-83
2024/01/13 19:20:28;;;;;;;;;;;;;;;1.40;53.48;99864.06;5020671;28;19912;-83
2024/01/13 19:25:41;;;;;;;;;;;;;;;1.42;53.52;99871.78;5516804;22;19911;-82
2024/01/13 19:30:50;;;;;;;;;;;;;;;1.31;54.13;99874.31;5594916;23;19929;-83
2024/01/13 19:33:17;;;;;;;;;;;;;;;1.27;53.99;99882.34;5041278;28;19965;-82
2024/01/13 19:35:45;;;;;;;;;;;;;;;1.24;54.69;99877.38;5040570;28;19905;-84
2024/01/13 19:38:15;;;;;;;;;;;;;;;1.18;54.58;99875.22;5040015;28;19952;-83
2024/01/13 19:40:48;;;;;;;;;;;;;;;-0.19;54.28;99647.72;5041267;28;19937;-83
2024/01/13 19:43:15;;;;;;;;;;;;;;;1.18;54.00;99875.22;5040763;28;19905;-83
2024/01/13 19:48:17;;;;;;;;;;;;;;;1.13;53.91;99861.72;5135562;22;19933;-82
2024/01/13 20:01:03;;;;;;;;;;;;;;;0.97;54.63;99844.72;5400789;23;19933;-83
2024/01/13 20:03:30;;;;;;;;;;;;;;;0.92;54.74;99843.28;5039549;28;19932;-83
2024/01/13 20:05:58;;;;;;;;;;;;;;;0.86;54.85;99850.69;5040444;28;19917;-82
2024/01/13 20:08:33;;;;;;;;;;;;;;;0.83;54.53;99850.91;5022260;28;19928;-82
2024/01/13 20:11:18;;;;;;;;;;;;;;;0.77;55.03;99856.53;5012204;28;19980;-82
2024/01/13 20:13:55;;;;;;;;;;;;;;;0.81;54.90;99863.19;5039844;28;19933;-83
2024/01/13 20:16:26;;;;;;;;;;;;;;;0.78;54.62;99856.44;5036947;28;19925;-82
2024/01/13 20:18:59;;;;;;;;;;;;;;;0.78;54.75;99846.03;5039693;28;19925;-82
2024/01/13 20:21:46;;;;;;;;;;;;;;;0.77;55.23;99854.75;5040638;28;19905;-82
2024/01/13 20:24:16;;;;;;;;;;;;;;;0.75;55.06;99856.63;5040300;28;19905;-83
2024/01/13 20:26:47;;;;;;;;;;;;;;;0.75;55.23;99863.59;5040320;28;19905;-82
2024/01/13 20:29:14;;;;;;;;;;;;;;;0.74;55.00;99856.72;5040530;28;19905;-82
2024/01/13 20:31:48;;;;;;;;;;;;;;;0.74;54.65;99862.75;5023342;28;19905;-83
2024/01/13 20:53:26;;;;;;;;;;;;;;;0.63;55.20;99853.09;5750150;23;19906;-82
2024/01/13 20:55:53;;;;;;;;;;;;;;;0.66;55.23;99852.06;5019875;28;19926;-82
2024/01/13 20:58:20;;;;;;;;;;;;;;;0.64;55.18;99849.56;5019782;28;19926;-82
2024/01/13 21:00:47;;;;;;;;;;;;;;;0.63;55.06;99849.69;5019537;28;19928;-82
2024/01/13 21:03:14;;;;;;;;;;;;;;;0.59;55.03;99850.81;5019513;28;19922;-82
2024/01/13 21:05:43;;;;;;;;;;;;;;;0.53;54.96;99840.88;5018426;28;19930;-82
2024/01/13 21:08:15;;;;;;;;;;;;;;;0.45;54.93;99844.00;5002679;28;20387;-82
2024/01/13 21:10:44;;;;;;;;;;;;;;;0.40;55.05;99843.50;5009867;28;19906;-82
2024/01/13 21:13:22;;;;;;;;;;;;;;;0.36;54.86;99842.03;5018708;28;19914;-83
2024/01/13 21:15:49;;;;;;;;;;;;;;;0.33;55.04;99850.03;5019381;28;19926;-82
2024/01/13 21:18:17;;;;;;;;;;;;;;;0.26;55.17;99844.44;5017176;28;19921;-82
2024/01/13 21:21:04;;;;;;;;;;;;;;;0.24;55.28;99851.50;5017510;28;19988;-82
2024/01/13 21:23:30;;;;;;;;;;;;;;;0.22;55.27;99855.13;5017485;28;19929;-82
2024/01/13 21:25:57;;;;;;;;;;;;;;;0.15;55.79;99852.13;5001388;28;19922;-82
2024/01/13 21:28:24;;;;;;;;;;;;;;;0.10;55.59;99851.63;5001552;28;19929;-82
2024/01/13 21:30:50;;;;;;;;;;;;;;;0.11;55.55;99852.44;5017545;28;19921;-82
2024/01/13 21:33:19;;;;;;;;;;;;;;;0.06;55.84;99846.72;5017460;28;19902;-82
2024/01/13 21:35:45;;;;;;;;;;;;;;;0.02;55.81;99838.31;5017623;28;19926;-82
2024/01/13 21:38:14;;;;;;;;;;;;;;;0.02;55.65;99840.09;5000820;28;19941;-82
2024/01/13 21:40:39;;;;;;;;;;;;;;;-0.01;56.00;99833.31;5017583;28;19921;-81
2024/01/13 21:43:08;;;;;;;;;;;;;;;0.03;55.38;99839.16;5017363;28;19909;-82
2024/01/13 21:45:35;;;;;;;;;;;;;;;0.07;55.24;99844.03;5017233;28;19902;-83
2024/01/13 21:48:02;;;;;;;;;;;;;;;0.08;55.52;99845.69;5017296;28;19902;-82
2024/01/13 21:50:32;;;;;;;;;;;;;;;0.06;55.62;99847.56;5001546;28;19910;-82
2024/01/13 21:53:07;;;;;;;;;;;;;;;0.07;55.35;99844.03;5010160;28;19941;-82
2024/01/13 21:55:33;;;;;;;;;;;;;;;0.06;55.66;99841.53;5000612;28;19921;-82
2024/01/13 21:58:02;;;;;;;;;;;;;;;0.02;55.25;99832.31;5000322;28;19924;-82
2024/01/13 22:00:29;;;;;;;;;;;;;;;-0.02;55.19;99827.28;5017474;28;19977;-82
2024/01/13 22:02:55;;;;;;;;;;;;;;;-0.06;55.89;99820.66;5000330;28;19909;-82
2024/01/13 22:05:24;;;;;;;;;;;;;;;-0.06;55.66;99830.19;5000494;28;19922;-82
2024/01/13 22:07:51;;;;;;;;;;;;;;;-0.06;55.50;99827.59;5001643;28;19958;-82
2024/01/13 22:10:17;;;;;;;;;;;;;;;-0.11;55.99;99835.69;5002761;28;19978;-81
2024/01/13 22:12:44;;;;;;;;;;;;;;;-0.12;55.70;99830.63;5017553;28;19921;-82
2024/01/13 22:15:10;;;;;;;;;;;;;;;-0.14;55.95;99828.13;5014115;28;19925;-83
2024/01/13 22:17:35;;;;;;;;;;;;;;;-0.13;55.97;99823.75;5018051;28;19981;-82
2024/01/13 22:20:08;;;;;;;;;;;;;;;-0.12;56.36;99818.47;5016456;28;19945;-83
2024/01/13 22:22:33;;;;;;;;;;;;;;;-0.13;56.25;99822.00;5011243;28;19940;-82
2024/01/13 22:24:59;;;;;;;;;;;;;;;-0.13;56.10;99814.22;5013226;28;19914;-82
2024/01/13 22:27:25;;;;;;;;;;;;;;;-0.19;56.69;99812.03;5014355;28;19918;-81
2024/01/13 22:29:54;;;;;;;;;;;;;;;-0.19;56.22;99817.22;5015119;28;20009;-82
2024/01/13 22:32:26;;;;;;;;;;;;;;;-0.14;55.98;99824.69;5017293;28;19936;-82
2024/01/13 22:34:51;;;;;;;;;;;;;;;-0.16;56.36;99822.19;5016911;28;19922;-81
2024/01/13 22:37:19;;;;;;;;;;;;;;;-0.12;56.12;99815.88;5014968;28;19956;-82
2024/01/13 22:39:50;;;;;;;;;;;;;;;-0.12;56.33;99813.28;5014927;28;20532;-82
2024/01/13 22:42:17;;;;;;;;;;;;;;;-0.14;56.02;99803.94;5016417;28;19905;-82
2024/01/13 22:44:43;;;;;;;;;;;;;;;-0.16;56.83;99803.22;5017629;28;19921;-82
2024/01/13 22:47:10;;;;;;;;;;;;;;;-0.13;56.05;99795.22;5017620;28;19912;-82
2024/01/13 22:49:37;;;;;;;;;;;;;;;-0.17;56.46;99789.41;5017485;28;19914;-82
2024/01/13 22:52:16;;;;;;;;;;;;;;;-0.24;56.94;99787.31;4996734;28;19926;-82
2024/01/13 22:54:44;;;;;;;;;;;;;;;-0.19;56.33;99788.69;5012944;28;19921;-82
2024/01/13 22:57:09;;;;;;;;;;;;;;;-0.23;56.99;99779.44;5016743;28;19945;-82
2024/01/13 22:59:35;;;;;;;;;;;;;;;-0.23;56.69;99784.63;5017448;28;19973;-82
2024/01/13 23:02:01;;;;;;;;;;;;;;;-0.26;57.40;99781.41;5017754;28;19921;-82
2024/01/13 23:04:27;;;;;;;;;;;;;;;-0.24;56.79;99772.59;5019869;28;19958;-82
2024/01/13 23:06:53;;;;;;;;;;;;;;;-0.21;56.66;99776.75;5021667;28;19898;-82
2024/01/13 23:09:22;;;;;;;;;;;;;;;-0.18;56.33;99774.78;5004525;28;19940;-82
2024/01/13 23:11:48;;;;;;;;;;;;;;;-0.20;56.74;99781.00;5021429;28;19922;-82
2024/01/13 23:14:14;;;;;;;;;;;;;;;-0.18;56.83;99779.13;5018662;28;19940;-81
2024/01/13 23:16:46;;;;;;;;;;;;;;;-0.17;56.81;99775.59;5011042;28;19897;-83
2024/01/13 23:19:12;;;;;;;;;;;;;;;-0.26;56.82;99771.88;5016662;28;19913;-82
2024/01/13 23:21:37;;;;;;;;;;;;;;;-0.19;56.64;99767.91;5015489;28;19945;-82
2024/01/13 23:24:04;;;;;;;;;;;;;;;-0.21;56.66;99758.56;5017490;28;19993;-82
2024/01/13 23:26:32;;;;;;;;;;;;;;;-0.20;56.34;99761.06;5014281;28;20292;-82
2024/01/13 23:28:59;;;;;;;;;;;;;;;-0.20;56.16;99763.66;5016860;28;19914;-82
2024/01/13 23:31:28;;;;;;;;;;;;;;;-0.21;56.18;99758.56;5020746;28;19922;-82
2024/01/13 23:33:53;;;;;;;;;;;;;;;-0.29;56.58;99764.28;5020785;28;19922;-82
2024/01/13 23:36:19;;;;;;;;;;;;;;;-0.29;57.01;99759.09;5019740;28;19914;-82
2024/01/13 23:38:46;;;;;;;;;;;;;;;-0.35;57.04;99756.91;5017129;28;19957;-82
2024/01/13 23:41:11;;;;;;;;;;;;;;;-0.34;57.08;99758.59;5020936;28;19928;-83
2024/01/13 23:43:38;;;;;;;;;;;;;;;-0.36;56.61;99752.66;5020815;28;19922;-82
2024/01/13 23:46:04;;;;;;;;;;;;;;;-0.41;57.58;99746.97;5019906;28;19902;-83
2024/01/13 23:48:29;;;;;;;;;;;;;;;-0.42;57.48;99745.31;5020925;28;19945;-82
2024/01/13 23:50:55;;;;;;;;;;;;;;;-0.47;57.83;99734.41;5019987;28;19972;-83
2024/01/13 23:53:22;;;;;;;;;;;;;;;-0.50;57.78;99724.25;5020001;28;20373;-83
2024/01/13 23:55:47;;;;;;;;;;;;;;;-0.54;58.17;99717.59;5019946;28;19937;-83
2024/01/13 23:58:27;;;;;;;;;;;;;;;-0.48;57.44;99733.56;5020297;28;19906;-82
